Time;durP1;ratioP1;P1;durP2;ratioP2;P2;SDS_P1;SDS_P2;PMS_P1;PMS_P2;Temp;Humidity;BMP_temperature;BMP_pressure;BME280_temperature;BME280_humidity;BME280_pressure;Samples;Min_cycle;Max_cycle;Signal;HPM_P1;HPM_P2
2022/08/09 00:02:09;;;;;;;5.20;3.28;;;;;;;16.56;89.84;101735.63;5161608;28;20026;-74
2022/08/09 00:04:39;;;;;;;5.22;3.10;;;;;;;16.47;90.80;101730.75;5160226;28;20709;-74
2022/08/09 00:07:09;;;;;;;4.97;3.13;;;;;;;16.59;90.32;101724.94;5160694;28;20570;-73
2022/08/09 00:09:40;;;;;;;3.83;2.78;;;;;;;16.84;88.70;101729.13;5160851;28;20744;-74
2022/08/09 00:12:10;;;;;;;8.38;3.00;;;;;;;16.86;89.09;101726.41;5161158;28;20022;-74
2022/08/09 00:14:41;;;;;;;4.40;3.20;;;;;;;16.79;89.31;101722.34;5160559;28;20589;-74
2022/08/09 00:17:11;;;;;;;4.90;3.15;;;;;;;16.93;88.41;101719.94;5160534;28;20085;-74
2022/08/09 00:19:41;;;;;;;7.45;3.50;;;;;;;16.92;89.06;101727.03;5159753;28;20480;-73
2022/08/09 00:22:12;;;;;;;5.07;3.30;;;;;;;16.98;88.14;101728.53;5161201;28;20466;-75
2022/08/09 00:24:42;;;;;;;5.32;3.33;;;;;;;16.75;88.90;101723.38;5161154;28;20030;-75
2022/08/09 00:27:13;;;;;;;5.32;2.88;;;;;;;16.70;87.91;101727.16;5160040;28;20051;-74
2022/08/09 00:29:43;;;;;;;5.93;3.08;;;;;;;16.47;90.12;101730.75;5155733;28;20041;-74
2022/08/09 00:32:14;;;;;;;4.38;2.88;;;;;;;16.25;91.03;101729.00;5160702;28;20404;-74
2022/08/09 00:34:45;;;;;;;4.50;2.83;;;;;;;16.37;90.22;101732.03;5160912;28;20080;-74
2022/08/09 00:37:15;;;;;;;4.32;3.15;;;;;;;16.24;89.78;101732.56;5153724;28;20038;-74
2022/08/09 00:39:45;;;;;;;4.57;3.05;;;;;;;16.05;91.43;101728.94;5155067;28;20030;-74
2022/08/09 00:42:16;;;;;;;5.35;3.15;;;;;;;15.82;92.38;101729.84;5160808;28;20641;-74
2022/08/09 00:44:47;;;;;;;4.30;2.92;;;;;;;16.07;89.89;101729.75;5159556;28;20464;-75
2022/08/09 00:47:17;;;;;;;5.25;2.92;;;;;;;15.89;92.70;101728.66;5160500;28;20435;-74
2022/08/09 00:49:47;;;;;;;4.57;2.92;;;;;;;15.52;94.51;101719.63;5160654;28;20065;-74
2022/08/09 00:52:18;;;;;;;6.13;3.05;;;;;;;15.37;96.08;101731.56;5160693;28;20538;-74
2022/08/09 00:54:50;;;;;;;4.60;3.25;;;;;;;15.66;93.84;101726.06;5160625;28;20034;-74
2022/08/09 00:57:20;;;;;;;5.00;3.20;;;;;;;15.59;94.88;101729.00;5160201;28;20477;-75
2022/08/09 00:59:51;;;;;;;4.38;2.95;;;;;;;15.45;96.24;101726.88;5160454;28;20042;-74
2022/08/09 01:02:24;;;;;;;4.78;2.97;;;;;;;15.79;93.83;101729.97;5160135;28;20534;-74
2022/08/09 01:05:14;;;;;;;4.68;3.15;;;;;;;15.92;91.66;101725.94;5159948;28;20030;-75
2022/08/09 01:08:03;;;;;;;4.68;3.25;;;;;;;15.75;91.04;101727.50;5159196;28;20614;-74
2022/08/09 01:10:45;;;;;;;5.75;2.78;;;;;;;15.43;94.68;101733.13;5159899;28;20042;-74
2022/08/09 01:13:47;;;;;;;5.65;3.10;;;;;;;15.65;93.25;101731.38;5156314;28;20408;-74
2022/08/09 01:16:25;;;;;;;8.70;3.35;;;;;;;15.66;92.11;101730.47;5143175;28;20046;-74
2022/08/09 01:19:01;;;;;;;6.07;2.92;;;;;;;15.52;92.13;101731.00;5159831;28;20038;-75
2022/08/09 01:21:43;;;;;;;;;;;;;;;15.18;95.83;101743.66;5160919;28;20029;-73
2022/08/09 01:24:25;;;;;;;4.35;2.90;;;;;;;14.83;99.44;101741.38;5156395;28;20326;-74
2022/08/09 01:27:00;;;;;;;6.00;3.50;;;;;;;14.64;100.00;101741.22;5159647;28;20085;-74
2022/08/09 01:30:08;;;;;;;5.38;3.55;;;;;;;14.82;100.00;101740.59;5159625;28;20026;-74
2022/08/09 01:32:44;;;;;;;7.13;3.90;;;;;;;14.82;100.00;101747.56;5116401;29;20513;-73
2022/08/09 01:35:23;;;;;;;5.90;3.15;;;;;;;14.72;100.00;101747.94;5150779;28;20053;-74
2022/08/09 01:38:00;;;;;;;7.85;3.60;;;;;;;14.83;100.00;101743.19;5159282;28;20480;-74
2022/08/09 01:40:34;;;;;;;5.25;3.45;;;;;;;14.93;100.00;101749.81;5159952;28;20123;-74
2022/08/09 01:43:05;;;;;;;5.85;3.53;;;;;;;14.81;99.49;101745.00;5160139;28;20103;-75
2022/08/09 01:45:37;;;;;;;6.47;3.33;;;;;;;14.77;100.00;101750.41;5159872;28;20034;-74
2022/08/09 01:48:09;;;;;;;5.00;3.25;;;;;;;14.81;99.87;101749.41;5159044;28;20018;-74
2022/08/09 01:50:41;;;;;;;5.65;3.45;;;;;;;14.85;100.00;101754.50;5159959;28;20026;-74
2022/08/09 01:53:12;;;;;;;6.10;3.63;;;;;;;14.79;100.00;101745.97;5142688;28;20126;-74
2022/08/09 01:55:45;;;;;;;5.90;3.05;;;;;;;15.18;97.59;101751.53;5155601;28;20635;-75
2022/08/09 01:58:16;;;;;;;4.40;3.30;;;;;;;15.15;95.22;101750.81;5159045;28;20042;-75
2022/08/09 02:00:48;;;;;;;4.95;3.40;;;;;;;15.14;98.05;101749.94;5159289;28;20026;-74
2022/08/09 02:03:20;;;;;;;6.72;3.47;;;;;;;15.07;98.74;101748.44;5159495;28;20026;-75
2022/08/09 02:05:53;;;;;;;6.45;3.90;;;;;;;14.97;99.69;101741.78;5159174;28;20034;-74
2022/08/09 02:08:24;;;;;;;6.32;3.90;;;;;;;14.84;100.00;101745.72;5158405;28;20105;-74
2022/08/09 02:10:57;;;;;;;7.90;4.00;;;;;;;14.61;100.00;101746.56;5159119;28;20500;-75
2022/08/09 02:13:29;;;;;;;9.20;3.97;;;;;;;14.62;100.00;101749.13;5159590;28;20034;-74
2022/08/09 02:16:02;;;;;;;8.25;4.40;;;;;;;14.63;100.00;101747.38;5160254;28;20054;-75
2022/08/09 02:18:34;;;;;;;5.15;3.63;;;;;;;14.80;100.00;101745.03;5162778;28;20077;-74
2022/08/09 02:21:10;;;;;;;8.57;4.45;;;;;;;14.75;100.00;101739.94;5163475;28;20113;-75
2022/08/09 02:23:42;;;;;;;;;;;;;;;14.65;100.00;101749.06;5163750;28;20033;-74
2022/08/09 02:26:15;;;;;;;9.65;4.13;;;;;;;14.79;100.00;101753.84;5163378;28;19921;-74
2022/08/09 02:28:50;;;;;;;7.97;3.97;;;;;;;15.16;100.00;101750.75;5159470;28;20076;-75
2022/08/09 02:31:26;;;;;;;4.68;3.20;;;;;;;15.12;93.31;101757.03;5162149;28;20093;-74
2022/08/09 02:34:06;;;;;;;5.20;3.15;;;;;;;14.93;92.28;101760.34;5163002;28;20041;-74
2022/08/09 02:36:51;;;;;;;5.43;3.40;;;;;;;14.32;96.66;101755.44;5163111;28;20034;-72
2022/08/09 02:39:26;;;;;;;8.23;4.20;;;;;;;13.92;100.00;101764.56;5160223;28;20611;-75
2022/08/09 02:42:02;;;;;;;6.03;3.45;;;;;;;13.71;100.00;101754.69;5163369;28;20492;-75
2022/08/09 02:44:37;;;;;;;;;;;;;;;13.68;100.00;101757.38;5163737;28;20064;-74
2022/08/09 02:47:11;;;;;;;7.05;4.22;;;;;;;13.76;100.00;101760.66;5163018;28;19914;-74
2022/08/09 02:49:47;;;;;;;8.02;3.72;;;;;;;13.92;100.00;101761.94;5162738;28;20022;-74
2022/08/09 02:52:20;;;;;;;6.57;4.18;;;;;;;13.84;100.00;101762.16;5159748;28;20030;-75
2022/08/09 02:54:52;;;;;;;9.07;4.47;;;;;;;14.07;100.00;101757.06;5163004;28;20034;-74
2022/08/09 02:57:24;;;;;;;7.22;4.10;;;;;;;14.09;100.00;101757.03;5162629;28;20029;-75
2022/08/09 02:59:56;;;;;;;8.52;4.15;;;;;;;14.10;100.00;101758.75;5162901;28;20073;-75
2022/08/09 03:02:27;;;;;;;6.80;4.32;;;;;;;14.11;100.00;101758.66;5162629;28;20448;-74
2022/08/09 03:05:01;;;;;;;6.15;4.13;;;;;;;14.37;100.00;101752.63;5162537;28;20400;-75
2022/08/09 03:07:33;;;;;;;7.32;4.30;;;;;;;14.44;100.00;101749.75;5161869;28;20471;-74
2022/08/09 03:10:04;;;;;;;8.73;4.28;;;;;;;14.62;100.00;101756.19;5162807;28;20092;-76
2022/08/09 03:12:37;;;;;;;6.22;4.40;;;;;;;14.49;100.00;101755.75;5161168;28;20311;-75
2022/08/09 03:15:11;;;;;;;6.53;3.75;;;;;;;14.79;100.00;101754.69;5162566;28;20439;-74
2022/08/09 03:17:42;;;;;;;8.73;3.90;;;;;;;14.81;100.00;101749.41;5162151;28;20034;-76
2022/08/09 03:20:14;;;;;;;6.13;3.70;;;;;;;14.73;100.00;101748.81;5162450;28;20026;-75
2022/08/09 03:22:46;;;;;;;5.25;3.65;;;;;;;14.66;100.00;101756.03;5161094;28;20034;-74
2022/08/09 03:25:17;;;;;;;7.03;4.03;;;;;;;14.72;100.00;101754.94;5162149;28;20031;-75
2022/08/09 03:27:50;;;;;;;7.18;3.85;;;;;;;14.71;100.00;101751.47;5161958;28;20422;-75
2022/08/09 03:30:20;;;;;;;5.50;4.05;;;;;;;14.82;100.00;101754.63;5162096;28;20030;-75
2022/08/09 03:32:53;;;;;;;7.53;4.07;;;;;;;14.82;100.00;101752.84;5162660;28;20081;-75
2022/08/09 03:35:24;;;;;;;7.05;3.90;;;;;;;14.95;100.00;101759.41;5161950;28;20085;-75
2022/08/09 03:37:54;;;;;;;6.05;3.53;;;;;;;14.94;100.00;101759.44;5161956;28;20073;-75
2022/08/09 03:40:25;;;;;;;7.35;3.97;;;;;;;14.97;100.00;101757.56;5162098;28;20396;-75
2022/08/09 03:42:55;;;;;;;8.75;3.70;;;;;;;15.00;100.00;101761.88;5162335;28;20026;-75
2022/08/09 03:45:25;;;;;;;8.65;3.60;;;;;;;15.04;100.00;101756.44;5161653;28;20076;-74
2022/08/09 03:47:56;;;;;;;7.78;3.53;;;;;;;15.14;100.00;101756.97;5161572;28;20041;-75
2022/08/09 03:50:27;;;;;;;6.18;3.45;;;;;;;15.15;100.00;101762.19;5162338;28;20018;-75
2022/08/09 03:53:01;;;;;;;7.57;3.20;;;;;;;15.15;100.00;101762.19;5161615;28;20042;-75
2022/08/09 03:55:32;;;;;;;5.60;3.45;;;;;;;15.21;100.00;101758.50;5160833;28;20052;-74
2022/08/09 03:58:03;;;;;;;7.30;3.10;;;;;;;15.30;98.65;101763.44;5161121;28;20062;-75
2022/08/09 04:00:33;;;;;;;7.28;2.90;;;;;;;15.37;98.77;101759.69;5161634;28;20519;-75
2022/08/09 04:03:05;;;;;;;7.45;3.05;;;;;;;15.31;98.82;101758.13;5160423;28;20121;-75
2022/08/09 04:05:36;;;;;;;7.78;2.80;;;;;;;15.39;98.20;101765.75;5161423;28;20026;-75
2022/08/09 04:08:06;;;;;;;5.07;2.67;;;;;;;15.43;97.73;101765.59;5160162;28;20451;-72
2022/08/09 04:10:36;;;;;;;4.60;2.67;;;;;;;15.64;97.73;101769.19;5160405;28;20030;-75
2022/08/09 04:13:10;;;;;;;6.50;2.60;;;;;;;15.56;96.78;101766.00;5161306;28;20682;-75
2022/08/09 04:15:43;;;;;;;7.38;3.08;;;;;;;15.57;97.59;101771.19;5160711;28;20423;-76
2022/08/09 04:18:13;;;;;;;6.60;2.63;;;;;;;15.75;96.50;101770.53;5159586;28;20022;-74
2022/08/09 04:20:47;;;;;;;7.18;2.90;;;;;;;15.67;97.38;101769.97;5157603;28;20559;-75
2022/08/09 04:23:20;;;;;;;5.30;2.90;;;;;;;15.63;98.47;101772.75;5161304;28;20496;-74
2022/08/09 04:25:50;;;;;;;5.85;2.72;;;;;;;15.82;96.47;101774.66;5161231;28;20040;-75
2022/08/09 04:28:22;;;;;;;8.48;2.67;;;;;;;15.98;95.05;101775.78;5160225;28;20027;-75
2022/08/09 04:30:52;;;;;;;5.47;2.60;;;;;;;16.14;94.64;101779.56;5161552;28;20520;-75
2022/08/09 04:33:23;;;;;;;5.22;2.50;;;;;;;16.20;94.79;101775.81;5162022;28;20065;-74
2022/08/09 04:35:53;;;;;;;6.60;2.80;;;;;;;16.28;94.07;101782.53;5161053;28;20081;-74
2022/08/09 04:38:23;;;;;;;3.75;2.30;;;;;;;16.31;95.22;101779.75;5160455;28;20388;-75
2022/08/09 04:40:54;;;;;;;5.90;2.70;;;;;;;16.32;95.76;101784.09;5161410;28;20069;-74
2022/08/09 04:43:24;;;;;;;8.85;3.00;;;;;;;16.23;95.65;101789.72;5161245;28;20022;-75
2022/08/09 04:45:54;;;;;;;5.50;2.50;;;;;;;16.37;96.75;101776.88;5160710;28;20036;-75
2022/08/09 04:48:25;;;;;;;5.10;2.40;;;;;;;16.33;97.27;101791.09;5160276;28;20367;-75
2022/08/09 04:50:55;;;;;;;5.05;2.20;;;;;;;16.38;97.83;101789.16;5160725;28;20049;-75
2022/08/09 04:53:25;;;;;;;6.30;3.20;;;;;;;16.48;95.50;101784.38;5159195;28;20162;-74
2022/08/09 04:55:56;;;;;;;6.35;3.03;;;;;;;17.53;90.44;101786.00;5160995;28;20026;-75
2022/08/09 04:58:27;;;;;;;7.22;2.05;;;;;;;19.03;85.42;101783.06;5159266;28;20113;-76
2022/08/09 05:00:58;;;;;;;3.60;1.55;;;;;;;20.44;78.77;101778.00;5160911;28;20113;-75
2022/08/09 05:03:29;;;;;;;4.18;2.25;;;;;;;20.57;73.72;101781.66;5161329;28;20034;-76
2022/08/09 05:05:59;;;;;;;5.47;2.00;;;;;;;21.27;71.23;101777.44;5160116;28;20373;-75
2022/08/09 05:08:31;;;;;;;3.55;1.70;;;;;;;22.27;71.20;101772.00;5159654;28;20038;-76
2022/08/09 05:11:02;;;;;;;5.07;1.90;;;;;;;22.67;68.15;101777.31;5159527;28;20022;-75
2022/08/09 05:13:33;;;;;;;4.97;1.77;;;;;;;23.66;66.99;101779.28;5157853;28;20034;-76
2022/08/09 05:16:03;;;;;;;3.42;1.58;;;;;;;23.32;66.64;101771.91;5159686;28;20045;-75
2022/08/09 05:18:34;;;;;;;4.40;1.73;;;;;;;24.01;65.47;101788.34;5164535;28;20089;-75
2022/08/09 05:21:04;;;;;;;4.15;1.70;;;;;;;25.18;62.39;101784.84;5159844;28;20537;-75
2022/08/09 05:23:35;;;;;;;3.88;1.85;;;;;;;25.48;60.90;101783.34;5158455;28;20064;-76
2022/08/09 05:26:05;;;;;;;3.95;1.70;;;;;;;25.17;61.27;101792.00;5157929;28;20033;-76
2022/08/09 05:28:35;;;;;;;8.27;2.00;;;;;;;25.58;60.08;101789.69;5158055;28;20611;-76
2022/08/09 05:31:06;;;;;;;4.65;2.25;;;;;;;25.41;61.79;101795.50;5158679;28;20471;-75
2022/08/09 05:33:37;;;;;;;8.38;1.85;;;;;;;26.06;59.87;101787.66;5157713;28;20026;-75
2022/08/09 05:36:07;;;;;;;7.40;2.20;;;;;;;26.85;58.74;101779.16;5158865;28;20504;-76
2022/08/09 05:38:38;;;;;;;9.80;1.80;;;;;;;27.07;58.13;101784.41;5157435;28;20045;-76
2022/08/09 05:41:08;;;;;;;9.43;2.30;;;;;;;26.91;58.51;101785.88;5160401;28;20038;-76
2022/08/09 05:43:38;;;;;;;7.15;1.98;;;;;;;26.91;58.02;101789.38;5159618;28;20029;-75
2022/08/09 05:46:10;;;;;;;7.15;2.20;;;;;;;27.47;57.55;101790.78;5158731;28;20034;-76
2022/08/09 05:48:40;;;;;;;5.03;1.80;;;;;;;27.62;57.49;101794.84;5159390;28;20030;-77
2022/08/09 05:51:10;;;;;;;8.03;1.90;;;;;;;26.65;57.84;101802.44;5158726;28;20415;-76
2022/08/09 05:53:41;;;;;;;4.78;1.48;;;;;;;27.41;58.11;101801.25;5159899;28;20372;-76
2022/08/09 05:56:11;;;;;;;2.30;1.38;;;;;;;27.33;58.03;101799.22;5159712;28;20096;-74
2022/08/09 05:58:41;;;;;;;2.67;1.42;;;;;;;27.72;57.32;101803.84;5159516;28;20038;-76
2022/08/09 06:01:12;;;;;;;5.78;1.65;;;;;;;27.29;57.26;101795.06;5165631;28;20029;-75
2022/08/09 06:03:42;;;;;;;7.15;1.85;;;;;;;27.61;56.28;101803.88;5159210;28;20522;-76
2022/08/09 06:06:12;;;;;;;5.30;1.70;;;;;;;27.18;58.08;101805.03;5159234;28;20058;-76
2022/08/09 06:08:43;;;;;;;3.80;1.65;;;;;;;26.45;57.92;101814.75;5159347;28;20030;-76
2022/08/09 06:11:13;;;;;;;5.40;1.70;;;;;;;25.73;59.87;101817.09;5160052;28;20523;-75
2022/08/09 06:13:44;;;;;;;5.15;1.88;;;;;;;23.84;65.00;101825.25;5159422;28;20049;-75
2022/08/09 06:16:14;;;;;;;8.90;1.80;;;;;;;23.02;67.81;101813.16;5155939;28;20452;-75
2022/08/09 06:18:44;;;;;;;4.30;1.90;;;;;;;22.67;69.96;101824.44;5159675;28;20046;-75
2022/08/09 06:21:15;;;;;;;3.13;1.73;;;;;;;23.31;66.92;101825.38;5159583;28;20061;-76
2022/08/09 06:23:46;;;;;;;4.78;1.70;;;;;;;24.70;64.95;101820.66;5159551;28;20755;-75
2022/08/09 06:26:18;;;;;;;4.82;1.92;;;;;;;23.53;65.39;101826.47;5159266;28;20030;-75
2022/08/09 06:28:55;;;;;;;5.45;1.70;;;;;;;25.01;62.09;101825.41;5159169;28;20066;-72
2022/08/09 06:31:25;;;;;;;5.80;1.58;;;;;;;25.08;63.32;101821.28;5159532;28;20057;-73
2022/08/09 06:33:55;;;;;;;3.63;1.80;;;;;;;25.16;62.71;101826.94;5159955;28;20062;-76
2022/08/09 06:36:26;;;;;;;3.30;1.80;;;;;;;26.04;61.27;101824.44;5158987;28;20030;-76
2022/08/09 06:38:57;;;;;;;5.38;1.80;;;;;;;26.32;60.77;101823.94;5164637;28;20054;-75
2022/08/09 06:41:27;;;;;;;4.20;1.85;;;;;;;25.61;61.50;101831.44;5166771;28;20430;-76
2022/08/09 06:43:58;;;;;;;5.15;1.77;;;;;;;26.13;60.70;101823.69;5169517;28;20018;-76
2022/08/09 06:46:29;;;;;;;5.57;1.88;;;;;;;26.23;60.11;101819.31;5173937;28;20033;-76
2022/08/09 06:48:59;;;;;;;5.22;1.85;;;;;;;27.10;59.45;101829.84;5159623;28;20070;-76
2022/08/09 06:51:30;;;;;;;3.60;1.83;;;;;;;27.13;59.30;101824.19;5162542;28;20096;-76
2022/08/09 06:54:01;;;;;;;5.28;1.75;;;;;;;27.75;56.64;101825.06;5171286;28;20491;-76
2022/08/09 06:56:31;;;;;;;4.93;1.92;;;;;;;26.86;58.44;101825.63;5170002;28;20038;-73
2022/08/09 06:59:01;;;;;;;2.87;1.27;;;;;;;28.85;55.56;101826.69;5171779;28;20088;-76
2022/08/09 07:01:32;;;;;;;3.80;1.75;;;;;;;28.55;54.59;101821.44;5170072;28;20277;-76
2022/08/09 07:04:02;;;;;;;3.13;1.70;;;;;;;28.71;55.36;101819.03;5174719;28;20034;-74
2022/08/09 07:06:34;;;;;;;4.60;1.77;;;;;;;29.52;54.41;101819.47;5173035;28;20859;-75
2022/08/09 07:09:04;;;;;;;4.47;1.60;;;;;;;29.47;54.03;101821.75;5175079;28;20038;-76
2022/08/09 07:11:34;;;;;;;3.78;1.50;;;;;;;29.20;54.90;101829.72;5173810;28;20530;-77
2022/08/09 07:14:05;;;;;;;2.83;1.48;;;;;;;29.73;52.93;101825.53;5166616;28;20034;-76
2022/08/09 07:16:35;;;;;;;4.38;1.52;;;;;;;30.23;52.99;101824.22;5170088;28;20026;-73
2022/08/09 07:19:05;;;;;;;2.78;1.67;;;;;;;30.14;53.07;101825.09;5162634;28;20102;-76
2022/08/09 07:21:36;;;;;;;5.30;1.90;;;;;;;30.80;51.77;101813.91;5162816;28;20567;-76
2022/08/09 07:24:07;;;;;;;3.85;1.70;;;;;;;30.50;52.28;101826.88;5163313;28;20026;-76
2022/08/09 07:26:37;;;;;;;6.45;2.08;;;;;;;29.66;53.36;101833.34;5162173;28;20423;-75
2022/08/09 07:29:08;;;;;;;4.20;1.90;;;;;;;30.12;52.70;101827.09;5162113;28;20540;-76
2022/08/09 07:31:39;;;;;;;3.40;2.00;;;;;;;29.35;54.35;101829.13;5162752;28;20034;-76
2022/08/09 07:34:09;;;;;;;4.28;2.00;;;;;;;31.68;50.21;101828.22;5163107;28;20034;-76
2022/08/09 07:36:40;;;;;;;7.93;2.10;;;;;;;29.88;52.92;101824.06;5166096;28;20096;-76
2022/08/09 07:39:10;;;;;;;5.88;2.13;;;;;;;29.77;52.44;101822.38;5174613;28;20324;-76
2022/08/09 07:41:41;;;;;;;3.75;1.90;;;;;;;30.75;52.08;101823.50;5177815;28;20079;-76
2022/08/09 07:44:11;;;;;;;3.47;1.80;;;;;;;30.79;51.96;101819.47;5163087;28;20015;-77
2022/08/09 07:46:42;;;;;;;6.28;2.00;;;;;;;30.97;50.47;101826.53;5163086;28;20340;-76
2022/08/09 07:49:12;;;;;;;3.40;1.80;;;;;;;32.21;49.47;101829.69;5160535;28;20119;-76
2022/08/09 07:51:42;;;;;;;4.47;1.85;;;;;;;31.59;49.29;101823.72;5162191;28;20041;-76
2022/08/09 07:54:14;;;;;;;5.07;1.90;;;;;;;30.08;50.92;101833.81;5162110;28;20431;-76
2022/08/09 07:56:44;;;;;;;3.88;1.75;;;;;;;30.81;49.85;101823.69;5157951;28;20046;-76
2022/08/09 07:59:15;;;;;;;2.50;1.70;;;;;;;29.91;51.44;101829.97;5161924;28;20029;-76
2022/08/09 08:01:45;;;;;;;8.38;2.00;;;;;;;30.78;50.03;101823.19;5162141;28;20041;-76
2022/08/09 08:04:15;;;;;;;7.22;1.85;;;;;;;33.00;47.13;101817.38;5162321;28;20116;-76
2022/08/09 08:06:46;;;;;;;2.20;1.53;;;;;;;30.36;49.38;101833.66;5161120;28;20468;-77
2022/08/09 08:09:16;;;;;;;4.75;1.70;;;;;;;30.85;49.17;101825.94;5161479;28;20320;-75
2022/08/09 08:11:46;;;;;;;4.95;1.63;;;;;;;28.53;53.24;101828.78;5161865;28;20030;-75
2022/08/09 08:14:17;;;;;;;3.65;1.80;;;;;;;29.71;51.14;101819.44;5165384;28;20034;-74
2022/08/09 08:16:47;;;;;;;4.93;1.80;;;;;;;30.63;49.05;101824.69;5164123;28;20034;-75
2022/08/09 08:19:18;;;;;;;3.40;1.70;;;;;;;30.47;49.28;101817.25;5161397;28;20022;-75
2022/08/09 08:21:50;;;;;;;4.38;1.50;;;;;;;31.56;48.52;101815.91;5161799;28;20906;-75
2022/08/09 08:24:20;;;;;;;3.92;1.73;;;;;;;32.39;47.96;101814.19;5161577;28;20030;-76
2022/08/09 08:26:50;;;;;;;4.47;1.80;;;;;;;32.12;48.60;101816.25;5161052;28;20133;-77
2022/08/09 08:29:21;;;;;;;4.97;1.53;;;;;;;32.87;47.68;101819.75;5160884;28;20288;-76
2022/08/09 08:31:51;;;;;;;3.83;1.40;;;;;;;32.72;46.58;101816.00;5161185;28;20280;-76
2022/08/09 08:34:22;;;;;;;6.03;1.70;;;;;;;31.02;48.74;101821.56;5161974;28;20053;-77
2022/08/09 08:36:52;;;;;;;3.35;1.60;;;;;;;31.51;48.92;101823.69;5161862;28;20876;-75
2022/08/09 08:39:23;;;;;;;3.13;1.45;;;;;;;32.07;47.89;101824.84;5161230;28;20046;-75
2022/08/09 08:41:54;;;;;;;5.93;1.80;;;;;;;33.10;46.31;101816.19;5160942;28;20096;-75
2022/08/09 08:44:27;;;;;;;3.97;1.70;;;;;;;32.38;47.06;101826.03;5161320;28;20300;-76
2022/08/09 08:46:58;;;;;;;3.95;1.67;;;;;;;32.00;47.87;101820.25;5160371;28;20034;-76
2022/08/09 08:49:30;;;;;;;6.35;1.50;;;;;;;32.71;47.72;101819.72;5160696;28;20026;-76
2022/08/09 08:52:00;;;;;;;7.07;2.25;;;;;;;33.42;45.83;101821.66;5160741;28;20034;-75
2022/08/09 08:54:31;;;;;;;6.93;1.88;;;;;;;34.11;45.05;101818.25;5160465;28;20662;-75
2022/08/09 08:57:04;;;;;;;3.00;1.50;;;;;;;34.09;45.08;101820.31;5160520;28;20546;-74
2022/08/09 08:59:34;;;;;;;4.57;2.10;;;;;;;33.32;46.00;101823.69;5160630;28;20030;-75
2022/08/09 09:02:07;;;;;;;4.20;1.58;;;;;;;30.38;49.14;101834.34;5160612;28;20411;-74
2022/08/09 09:04:38;;;;;;;3.92;1.35;;;;;;;31.40;47.71;101827.47;5161161;28;20030;-75
2022/08/09 09:07:09;;;;;;;2.45;1.40;;;;;;;32.33;46.75;101820.28;5160017;28;20396;-75
2022/08/09 09:09:45;;;;;;;6.88;1.75;;;;;;;32.74;46.28;101835.63;5160354;28;20038;-76
2022/08/09 09:12:17;;;;;;;4.72;1.92;;;;;;;31.05;48.29;101832.03;5156823;28;20022;-75
2022/08/09 09:14:49;;;;;;;4.65;2.00;;;;;;;30.25;49.30;101835.69;5159079;28;20050;-75
2022/08/09 09:17:19;;;;;;;4.65;2.03;;;;;;;29.82;49.81;101835.41;5159885;28;20031;-72
2022/08/09 09:19:51;;;;;;;4.85;1.85;;;;;;;29.85;50.46;101830.59;5160544;28;20084;-74
2022/08/09 09:22:21;;;;;;;5.75;1.88;;;;;;;28.78;52.13;101842.56;5160617;28;20033;-75
2022/08/09 09:24:53;;;;;;;4.90;1.63;;;;;;;28.59;52.24;101838.13;5160282;28;20665;-74
2022/08/09 09:27:25;;;;;;;7.32;1.70;;;;;;;28.49;51.91;101830.03;5158404;28;20026;-75
2022/08/09 09:29:56;;;;;;;4.53;1.50;;;;;;;28.90;51.91;101835.25;5160159;28;20073;-75
2022/08/09 09:32:30;;;;;;;5.35;1.60;;;;;;;27.84;53.48;101832.34;5160258;28;20022;-74
2022/08/09 09:35:04;;;;;;;8.43;1.83;;;;;;;27.80;53.52;101833.56;5158690;28;20035;-74
2022/08/09 09:37:36;;;;;;;3.60;1.58;;;;;;;27.41;54.26;101831.63;5157385;28;20036;-74
2022/08/09 09:40:08;;;;;;;5.25;1.80;;;;;;;27.41;53.59;101833.47;5158897;28;20526;-74
2022/08/09 09:42:39;;;;;;;4.57;2.00;;;;;;;28.01;53.33;101837.09;5159481;28;20042;-74
2022/08/09 09:45:09;;;;;;;4.72;1.83;;;;;;;27.94;53.52;101832.38;5161238;28;20032;-74
2022/08/09 09:47:44;;;;;;;3.33;1.75;;;;;;;28.44;52.56;101832.31;5159951;28;20432;-75
2022/08/09 09:50:21;;;;;;;5.45;1.92;;;;;;;27.92;53.54;101839.75;5155848;28;20034;-74
2022/08/09 09:52:53;;;;;;;5.65;1.92;;;;;;;29.04;53.16;101841.06;5158524;28;20074;-75
2022/08/09 09:55:24;;;;;;;2.95;1.67;;;;;;;28.75;52.14;101845.53;5159316;28;20030;-75
2022/08/09 09:58:03;;;;;;;3.53;1.60;;;;;;;27.31;52.55;101844.13;5159265;28;20399;-75
2022/08/09 10:00:42;;;;;;;4.10;1.73;;;;;;;28.06;51.79;101844.72;5159242;28;20160;-72
2022/08/09 10:03:13;;;;;;;4.03;1.65;;;;;;;28.45;51.54;101835.84;5160599;28;20052;-75
2022/08/09 10:05:57;;;;;;;4.47;1.80;;;;;;;28.32;53.15;101832.56;5159763;28;20034;-75
2022/08/09 10:08:27;;;;;;;6.47;1.88;;;;;;;28.25;53.63;101834.91;5159389;28;20037;-75
2022/08/09 10:10:58;;;;;;;5.32;1.70;;;;;;;27.34;54.58;101832.28;5159511;28;20030;-74
2022/08/09 10:13:38;;;;;;;26.85;2.22;;;;;;;27.19;53.57;101838.94;5159431;28;20026;-74
2022/08/09 10:16:09;;;;;;;8.23;1.80;;;;;;;27.73;52.92;101832.41;5159812;28;20034;-74
2022/08/09 10:18:50;;;;;;;15.00;2.00;;;;;;;27.42;53.98;101825.25;5158454;28;20026;-74
2022/08/09 10:21:21;;;;;;;6.63;1.92;;;;;;;27.13;53.47;101824.19;5156542;28;20026;-74
2022/08/09 10:23:54;;;;;;;8.55;1.70;;;;;;;27.80;53.87;101817.44;5158764;28;20543;-74
2022/08/09 10:26:25;;;;;;;6.70;2.05;;;;;;;27.81;52.86;101827.22;5159339;28;20033;-74
2022/08/09 10:28:56;;;;;;;3.25;1.80;;;;;;;27.44;54.24;101823.28;5158825;28;20042;-75
2022/08/09 10:31:27;;;;;;;3.03;1.70;;;;;;;27.13;54.54;101826.88;5159832;28;20054;-75
2022/08/09 10:33:57;;;;;;;2.30;1.50;;;;;;;27.48;53.52;101822.03;5160030;28;20078;-75
2022/08/09 10:36:28;;;;;;;3.15;1.80;;;;;;;27.29;53.04;101819.22;5159383;28;20571;-74
2022/08/09 10:38:58;;;;;;;3.40;1.63;;;;;;;27.33;54.19;101814.47;5162892;28;20034;-75
2022/08/09 10:41:28;;;;;;;2.90;1.77;;;;;;;27.48;54.52;101813.16;5163416;28;20022;-75
2022/08/09 10:43:59;;;;;;;3.10;1.92;;;;;;;27.35;53.80;101801.75;5162885;28;20030;-75
2022/08/09 10:46:57;;;;;;;3.90;2.05;;;;;;;27.68;53.32;101812.25;5162726;28;20041;-74
2022/08/09 10:49:44;;;;;;;6.40;1.73;;;;;;;27.11;53.54;101810.06;5161109;28;20031;-75
2022/08/09 10:52:43;;;;;;;5.68;1.90;;;;;;;27.10;54.13;101804.84;5159120;28;20069;-74
2022/08/09 10:55:24;;;;;;;4.40;2.08;;;;;;;26.83;54.70;101810.66;5162642;28;20034;-74
2022/08/09 10:57:55;;;;;;;4.97;1.80;;;;;;;26.88;54.25;101803.06;5160441;28;20597;-74
2022/08/09 11:00:40;;;;;;;5.47;1.80;;;;;;;26.88;54.37;101808.44;5162551;28;20041;-75
2022/08/09 11:03:23;;;;;;;3.90;1.90;;;;;;;27.10;55.06;101805.66;5163608;28;20256;-74
2022/08/09 11:06:24;;;;;;;5.75;1.63;;;;;;;27.72;53.81;101794.91;5161801;28;20046;-75
2022/08/09 11:08:54;;;;;;;5.70;2.05;;;;;;;27.40;52.91;101797.69;5160081;28;20065;-74
2022/08/09 11:11:24;;;;;;;3.85;1.95;;;;;;;27.38;53.46;101796.97;5162575;28;20586;-74
2022/08/09 11:14:37;;;;;;;4.00;1.90;;;;;;;26.06;54.88;101811.78;5162791;28;20058;-75
2022/08/09 11:17:13;;;;;;;4.75;1.90;;;;;;;26.57;54.94;101803.06;5161677;28;20273;-75
2022/08/09 11:19:57;;;;;;;3.90;1.80;;;;;;;26.95;53.71;101798.88;5162356;28;20054;-75
2022/08/09 11:22:41;;;;;;;3.95;1.90;;;;;;;26.80;55.57;101805.53;5160742;28;20041;-74
2022/08/09 11:25:16;;;;;;;2.70;1.63;;;;;;;26.78;55.87;101802.13;5162964;28;20076;-74
2022/08/09 11:27:52;;;;;;;6.63;1.80;;;;;;;26.73;54.64;101797.28;5159890;28;20026;-74
2022/08/09 11:30:22;;;;;;;3.42;2.10;;;;;;;26.62;53.69;101803.53;5161790;28;20037;-74
2022/08/09 11:32:55;;;;;;;3.28;1.88;;;;;;;26.74;53.29;101797.16;5163383;28;20034;-75
2022/08/09 11:35:38;;;;;;;4.15;1.92;;;;;;;26.97;54.67;101782.66;5170419;28;20504;-73
2022/08/09 11:38:19;;;;;;;5.30;1.83;;;;;;;27.20;54.81;101792.31;5160760;28;20396;-74
2022/08/09 11:40:51;;;;;;;5.03;2.00;;;;;;;27.17;53.91;101806.00;5158248;28;20030;-74
2022/08/09 11:43:24;;;;;;;4.82;1.67;;;;;;;27.11;54.78;101798.47;5162258;28;20026;-74
2022/08/09 11:45:59;;;;;;;2.65;1.80;;;;;;;27.29;54.89;101797.75;5160484;28;20444;-74
2022/08/09 11:48:32;;;;;;;3.38;1.83;;;;;;;27.30;55.50;101799.44;5157384;28;20893;-74
2022/08/09 11:51:03;;;;;;;4.00;1.75;;;;;;;27.40;55.15;101804.88;5159707;28;20030;-74